Kemi-Tornio Airport

EFKE · Lapland, Finland

METAR history EFKE · Kemi-Tornio Airport

Below you see METARs of the last few days. Select a year to browse through older METARs, from the year 2007 onwards.

March 3, 2024

Time Code Weather Temp. Visibility Ceiling Wind METAR/SPECI
02:50
L
1 °C 10 km+ 400 ft 190° 190° 8 kt METAR EFKE 030050Z AUTO 19008KT 9999 OVC004 01/00 Q1023
02:20
L
1 °C 10 km+ 300 ft 200° 200° 9 kt METAR EFKE 030020Z AUTO 20009KT 9999 OVC003 01/01 Q1023
01:50
L
1 °C 9 km 100 ft 180° 180° 7 kt METAR EFKE 022350Z AUTO 18007KT 9000 OVC001 01/00 Q1023
01:20
L
1 °C 2.3 km 200 ft 180° 180° 7 kt METAR EFKE 022320Z AUTO 18007KT 2300 BR VV002 01/01 Q1023
00:50
L
0 °C 2 km 200 ft 170° 170° 6 kt METAR EFKE 022250Z AUTO 17006KT 2000 BCFG VV002 00/00 Q1023
00:20
L
1 °C 2.7 km 100 ft 170° 170° 7 kt METAR EFKE 022220Z AUTO 17007KT 2700 BR OVC001 01/00 Q1023

March 2, 2024

Time Code Weather Temp. Visibility Ceiling Wind METAR/SPECI
23:50
L
0 °C 2.1 km 200 ft 180° 180° 7 kt METAR EFKE 022150Z AUTO 18007KT 2100 BCFG VV002 00/00 Q1023
23:20
L
0 °C 2.3 km 200 ft 190° 190° 8 kt METAR EFKE 022120Z AUTO 19008KT 2300 BR VV002 00/00 Q1023
22:50
L
1 °C 3 km 100 ft 190° 190° 8 kt METAR EFKE 022050Z AUTO 19008KT 3000 BR OVC001 01/00 Q1022
22:20
L
1 °C 4.3 km 100 ft 190° 190° 9 kt METAR EFKE 022020Z AUTO 19009KT 4300 BR OVC001 01/01 Q1022
21:50
L
1 °C 2.8 km 100 ft 190° 190° 9 kt METAR EFKE 021950Z AUTO 19009KT 2800 BR OVC001 01/01 Q1022
21:20
L
1 °C 2.3 km 100 ft 190° 190° 9 kt METAR EFKE 021920Z AUTO 19009KT 2300 BR OVC001 01/01 Q1022
20:50
L
1 °C 2.8 km 100 ft 190° 190° 10 kt METAR EFKE 021850Z AUTO 19010KT 2800 BR OVC001 01/01 Q1022
20:20
L
1 °C 2.8 km 100 ft 190° 190° 12 kt METAR EFKE 021820Z AUTO 19012KT 2800 BR OVC001 01/01 Q1022
19:50
L
1 °C 3.4 km 100 ft 190° 190° 12 kt METAR EFKE 021750Z AUTO 19012KT 3400 BR OVC001 01/01 Q1022
19:20
L
1 °C 4.3 km 200 ft 180° 180° 12 kt METAR EFKE 021720Z AUTO 18012KT 4300 BR OVC002 01/01 Q1021
18:50
L
1 °C 4.5 km 200 ft 190° 190° 12 kt METAR EFKE 021650Z AUTO 19012KT 4500 BR OVC002 01/01 Q1021
18:20
L
1 °C 4.4 km 200 ft 190° 190° 11 kt METAR EFKE 021620Z AUTO 19011KT 4400 BR OVC002 01/01 Q1021
17:50
L
1 °C 4.1 km 200 ft 190° 190° 13 kt METAR EFKE 021550Z AUTO 19013KT 4100 BR OVC002 01/01 Q1021
17:20
L
1 °C 4.8 km 200 ft 190° 190° 13 kt METAR EFKE 021520Z AUTO 19013KT 4800 BR OVC002 01/01 Q1021
16:50
L
1 °C 4.6 km 200 ft 190° 190° 15 kt METAR EFKE 021450Z AUTO 19015KT 4600 BR OVC002 01/01 Q1021
16:20
L
1 °C 6 km 100 ft 190° 190° 14 kt METAR EFKE 021420Z AUTO 19014KT 6000 OVC001 01/01 Q1021
15:50
L
1 °C 1.2 km 100 ft 190° 190° 14 kt METAR EFKE 021350Z AUTO 19014KT 1700 1200 R18/1800U BR OVC001 01/01 Q1021
15:20
L
1 °C 1.3 km 100 ft 190° 190° 15 kt METAR EFKE 021320Z AUTO 19015KT 1300 R18/1600U BR OVC001 01/01 Q1021
14:50
L
1 °C 1.3 km 100 ft 190° 190° 15 kt METAR EFKE 021250Z AUTO 19015KT 1300 R18/1800D BR OVC001 01/01 Q1021
14:20
L
1 °C 1.3 km 100 ft 190° 190° 14 kt METAR EFKE 021220Z AUTO 19014KT 1300 R18/1700N BR OVC001 01/01 Q1021
13:50
L
1 °C 1.4 km 100 ft 190° 190° 12 kt METAR EFKE 021150Z AUTO 19012KT 1400 R18/1800D BR OVC001 01/01 Q1021
13:20
L
1 °C 2.2 km 200 ft 180° 180° 12 kt METAR EFKE 021120Z AUTO 18012KT 2200 BR OVC002 01/01 Q1021
12:50
L
1 °C 5 km 200 ft 180° 180° 14 kt METAR EFKE 021050Z AUTO 18014KT 5000 OVC002 01/01 Q1020
12:20
L
1 °C 7 km 200 ft 180° 180° 13 kt METAR EFKE 021020Z AUTO 18013KT 7000 OVC002 01/00 Q1020
11:50
L
1 °C 6 km 300 ft 180° 180° 12 kt METAR EFKE 020950Z AUTO 18012KT 6000 OVC003 01/00 Q1020
11:20
L
1 °C 10 km+ 400 ft 180° 180° 12 kt METAR EFKE 020920Z AUTO 18012KT 9999 OVC004 01/00 Q1020
10:50
L
1 °C 10 km+ 400 ft 190° 190° 13 kt METAR EFKE 020850Z AUTO 19013KT 9999 -SHRA OVC004 01/00 Q1020
10:20
I
1 °C 6 km 500 ft 180° 180° 14 kt METAR EFKE 020820Z AUTO 18014KT 6000 -RA OVC005 01/00 Q1019
09:50
I
1 °C 10 km+ 500 ft 180° 180° 11 kt METAR EFKE 020750Z AUTO 18011KT 9999 -SHRA OVC005 01/00 Q1019
09:20
I
1 °C 10 km+ 500 ft 180° 180° 12 kt METAR EFKE 020720Z AUTO 18012KT 9999 -SHRA OVC005 01/00 Q1019
08:50
I
1 °C 10 km+ 500 ft 190° 190° 13 kt METAR EFKE 020650Z AUTO 19013KT 9999 -SNRA OVC005 01/00 Q1019 RESHRA RERA
08:20
I
1 °C 5 km 500 ft 180° 180° 11 kt METAR EFKE 020620Z AUTO 18011KT 5000 -SHRA OVC005 01/00 Q1019
07:50
I
1 °C 10 km+ 500 ft 180° 180° 12 kt METAR EFKE 020550Z AUTO 18012KT 9999 -SHRA OVC005 01/00 Q1019
07:20
I
1 °C 9 km 600 ft 180° 180° 12 kt METAR EFKE 020520Z AUTO 18012KT 9000 -RA OVC006 01/00 Q1018
06:50
I
1 °C 10 km+ 600 ft 190° 190° 12 kt METAR EFKE 020450Z AUTO 19012KT 9999 -DZ OVC006 01/00 Q1018
06:20
I
1 °C 10 km+ 500 ft 190° 190° 11 kt METAR EFKE 020420Z 19011KT 9999 OVC005 01/M00 Q1018
05:50
I
1 °C 10 km+ 600 ft 190° 190° 12 kt METAR EFKE 020350Z 19012KT 9999 OVC006 01/M00 Q1018
05:20
I
1 °C 10 km+ 600 ft 190° 190° 13 kt METAR EFKE 020320Z AUTO 19013KT 9999 OVC006 01/M00 Q1018
04:50
I
1 °C 10 km+ 700 ft 190° 190° 13 kt METAR EFKE 020250Z AUTO 19013KT 9999 OVC007 01/M00 Q1018
04:20
I
1 °C 10 km+ 800 ft 190° 190° 15 kt METAR EFKE 020220Z AUTO 19015KT 9999 OVC008 01/M00 Q1018
03:50
M
1 °C 10 km+ 1,100 ft 190° 190° 15 kt METAR EFKE 020150Z AUTO 19015KT 9999 OVC011 01/M00 Q1018
03:20
M
1 °C 10 km+ 1,400 ft 190° 190° 14 kt METAR EFKE 020120Z AUTO 19014KT 9999 OVC014 01/M00 Q1018
02:50
M
1 °C 10 km+ 1,700 ft 190° 190° 15 kt METAR EFKE 020050Z AUTO 19015KT 9999 OVC017 01/M00 Q1018
02:20
M
1 °C 10 km+ 1,700 ft 200° 200° 14 kt METAR EFKE 020020Z 20014KT 9999 OVC017 01/M00 Q1018
01:50
M
1 °C 10 km+ 1,700 ft 190° 190° 14 kt METAR EFKE 012350Z 19014KT 9999 OVC017 01/M00 Q1018
01:20
M
2 °C 10 km+ 1,600 ft 190° 190° 14 kt METAR EFKE 012320Z AUTO 19014KT 9999 OVC016 02/M00 Q1017
00:50
M
2 °C 10 km+ 1,500 ft 180° 180° 14 kt METAR EFKE 012250Z AUTO 18014KT 9999 OVC015 02/M00 Q1017
00:20
M
2 °C 10 km+ 1,400 ft 190° 190° 16 kt METAR EFKE 012220Z AUTO 19016KT 9999 OVC014 02/00 Q1017

March 1, 2024

Time Code Weather Temp. Visibility Ceiling Wind METAR/SPECI
23:50
M
2 °C 10 km+ 1,200 ft 190° 190° 17 kt METAR EFKE 012150Z AUTO 19017KT 9999 OVC012 02/M00 Q1017
23:20
M
2 °C 10 km+ 1,200 ft 190° 190° 16 kt METAR EFKE 012120Z AUTO 19016KT 9999 OVC012 02/M00 Q1017
22:50
M
2 °C 10 km+ 1,400 ft 190° 190° 16 kt METAR EFKE 012050Z AUTO 19016KT 9999 OVC014 02/00 Q1016
22:20
M
2 °C 10 km+ 1,000 ft 190° 190° 17 kt METAR EFKE 012020Z AUTO 19017KT 9999 OVC010 02/00 Q1016
21:50
M
2 °C 10 km+ 1,100 ft 200° 200° 18 kt METAR EFKE 011950Z AUTO 20018KT 9999 OVC011 02/00 Q1016
21:20
M
2 °C 10 km+ 1,200 ft 190° 190° 16 kt METAR EFKE 011920Z AUTO 19016KT 9999 OVC012 02/00 Q1016
20:50
M
2 °C 10 km+ 1,300 ft 190° 190° 16 kt METAR EFKE 011850Z AUTO 19016KT 9999 FEW007 OVC013 02/00 Q1016
20:20
I
1 °C 10 km+ 600 ft 200° 200° 15 kt METAR EFKE 011820Z 20015KT 9999 OVC006 01/00 Q1016
19:50
I
1 °C 10 km+ 600 ft 210° 210° 16 kt METAR EFKE 011750Z 21016KT 9999 OVC006 01/00 Q1016
19:20
I
1 °C 10 km+ 700 ft 200° 200° 16 kt METAR EFKE 011720Z AUTO 20016KT 9999 OVC007 01/00 Q1015
18:50
I
1 °C 10 km+ 700 ft 200° 200° 14 kt METAR EFKE 011650Z AUTO 20014KT 9999 OVC007 01/M00 Q1015
18:20
I
1 °C 10 km+ 800 ft 200° 200° 17 kt METAR EFKE 011620Z AUTO 20017KT 9999 OVC008 01/00 Q1015
17:50
I
1 °C 10 km+ 800 ft 200° 200° 17 kt METAR EFKE 011550Z AUTO 20017KT 9999 OVC008 01/M00 Q1015
17:20
I
1 °C 10 km+ 700 ft 190° 190° 15 kt METAR EFKE 011520Z AUTO 19015KT 9999 OVC007 01/M00 Q1015
16:50
I
1 °C 10 km+ 500 ft 190° 190° 15 kt METAR EFKE 011450Z AUTO 19015KT 9999 -DZ OVC005 01/00 Q1015
16:20
L
1 °C 9 km 400 ft 190° 190° 15 kt METAR EFKE 011420Z AUTO 19015KT 9000 -SHRA OVC004 01/00 Q1015
15:50
L
1 °C 10 km+ 400 ft 190° 190° 17 kt METAR EFKE 011350Z AUTO 19017KT 9999 -SHRA OVC004 01/00 Q1014
15:20
I
1 °C 8 km 500 ft 190° 190° 15 kt METAR EFKE 011320Z AUTO 19015KT 8000 -RA OVC005 01/00 Q1014
14:50
L
1 °C 10 km+ 400 ft 190° 190° 14 kt METAR EFKE 011250Z AUTO 19014KT 9999 -RA OVC004 01/00 Q1014
14:20
I
1 °C 10 km+ 500 ft 190° 190° 17 kt METAR EFKE 011220Z AUTO 19017KT 9999 OVC005 01/00 Q1014
13:50
I
1 °C 10 km+ 500 ft 190° 190° 17 kt METAR EFKE 011150Z AUTO 19017KT 9999 OVC005 01/00 Q1013
13:20
L
1 °C 10 km+ 300 ft 190° 190° 16 kt METAR EFKE 011120Z 19016KT 9999 OVC003 01/00 Q1013
12:50
L
1 °C 9 km 300 ft 180° 180° 17 kt METAR EFKE 011050Z 18017KT 9000 OVC003 01/00 Q1013
12:20
L
1 °C 3.8 km 300 ft 180° 180° 16 kt METAR EFKE 011020Z 18016KT 3800 BR OVC003 01/00 Q1013
11:50
L
1 °C 3.8 km 300 ft 190° 190° 17 kt METAR EFKE 010950Z AUTO 19017KT 3800 BR OVC003 01/00 Q1013
11:20
L
1 °C 4 km 300 ft 190° 190° 18 kt METAR EFKE 010920Z AUTO 19018KT 4000 BR OVC003 01/00 Q1012
10:50
L
1 °C 10 km+ 400 ft 190° 190° 19 kt METAR EFKE 010850Z AUTO 19019KT 9999 OVC004 01/00 Q1012
10:20
L
1 °C 8 km 300 ft 200° 200° 19 kt METAR EFKE 010820Z AUTO 20019KT 8000 OVC003 01/00 Q1012
09:50
L
1 °C 6 km 300 ft 200° 200° 20 kt METAR EFKE 010750Z AUTO 20020KT 6000 OVC003 01/01 Q1011
09:20
L
1 °C 10 km+ 300 ft 200° 200° 20 kt METAR EFKE 010720Z AUTO 20020KT 9999 OVC003 01/00 Q1011
08:50
L
1 °C 8 km 300 ft 200° 200° 19 kt METAR EFKE 010650Z AUTO 20019KT 8000 OVC003 01/00 Q1011
08:20
L
1 °C 5 km 300 ft 200° 200° 21 kt METAR EFKE 010620Z AUTO 20021KT 5000 OVC003 01/00 Q1011
07:50
L
1 °C 4.4 km 300 ft 190° 190° 21 kt METAR EFKE 010550Z AUTO 19021KT 4400 -SHRA OVC003 01/00 Q1010
07:20
L
1 °C 6 km 300 ft 200° 200° 20 kt METAR EFKE 010520Z AUTO 20020KT 6000 OVC003 01/00 Q1010
06:50
L
1 °C 7 km 300 ft 200° 200° 19 kt METAR EFKE 010450Z AUTO 20019KT 7000 OVC003 01/00 Q1010
06:20
L
1 °C 6 km 300 ft 200° 200° 20 kt METAR EFKE 010420Z 20020KT 6000 -DZ OVC003 01/00 Q1009
05:50
L
1 °C 6 km 300 ft 200° 200° 20 kt METAR EFKE 010350Z 20020KT 6000 -DZ OVC003 01/00 Q1009
05:20
L
1 °C 6 km 300 ft 200° 200° 19 kt METAR EFKE 010320Z AUTO 20019KT 6000 -DZ OVC003 01/00 Q1009
04:50
L
1 °C 4.8 km 400 ft 200° 200° 19 kt METAR EFKE 010250Z AUTO 20019KT 4800 -SHRA OVC004 01/00 Q1009
04:20
I
1 °C 10 km+ 500 ft 190° 190° 20 kt METAR EFKE 010220Z AUTO 19020KT 9999 OVC005 01/00 Q1008
03:50
I
1 °C 7 km 500 ft 200° 200° 19 kt METAR EFKE 010150Z AUTO 20019KT 7000 -SHRA OVC005 01/00 Q1008
03:20
I
1 °C 9 km 500 ft 200° 200° 20 kt METAR EFKE 010120Z AUTO 20020KT 9000 -DZ OVC005 01/M00 Q1008
02:50
I
1 °C 5 km 500 ft 190° 190° 20 kt METAR EFKE 010050Z AUTO 19020KT 5000 -DZ OVC005 01/00 Q1008
02:20
L
1 °C 5 km 400 ft 190° 190° 18 - 28 kt METAR EFKE 010020Z 19018G28KT 5000 -RA OVC004 01/00 Q1008
01:50
I
1 °C 5 km 500 ft 190° 190° 18 kt METAR EFKE 292350Z 19018KT 5000 -RA OVC005 01/00 Q1008
01:20
I
1 °C 8 km 500 ft 180° 180° 19 - 30 kt METAR EFKE 292320Z AUTO 18019G30KT 8000 -SHRA OVC005 01/00 Q1008
00:50
I
1 °C 10 km+ 500 ft 190° 190° 20 kt METAR EFKE 292250Z AUTO 19020KT 9999 -SHRA OVC005 01/M00 Q1008
00:20
L
1 °C 10 km+ 400 ft 190° 190° 19 kt METAR EFKE 292220Z AUTO 19019KT 9999 -DZ OVC004 01/00 Q1008

February 29, 2024

Time Code Weather Temp. Visibility Ceiling Wind METAR/SPECI
23:50
I
1 °C 5 km 500 ft 180° 180° 16 kt METAR EFKE 292150Z AUTO 18016KT 5000 -SNRA OVC005 01/00 Q1007
23:20
I
1 °C 7 km 500 ft 180° 180° 17 - 28 kt METAR EFKE 292120Z AUTO 18017G28KT 7000 -SN OVC005 01/00 Q1007
22:50
M
1 °C 8 km 1,100 ft 180° 180° 16 kt METAR EFKE 292050Z AUTO 18016KT 8000 -SHSN OVC011 01/M00 Q1008
22:20
M
1 °C 10 km+ 2,100 ft 180° 180° 17 kt METAR EFKE 292020Z AUTO 18017KT 9999 -SHRA OVC021 01/M00 Q1008
21:50
M
2 °C 10 km+ 2,100 ft 180° 180° 15 kt METAR EFKE 291950Z AUTO 18015KT 9999 OVC021 02/M00 Q1007
21:20
M
2 °C 10 km+ 2,000 ft 170° 170° 15 kt METAR EFKE 291920Z AUTO 17015KT 9999 OVC020 02/M00 Q1007
20:50
M
2 °C 10 km+ 2,300 ft 170° 170° 14 kt METAR EFKE 291850Z AUTO 17014KT 130V190 9999 OVC023 02/M00 Q1007
20:20
M
2 °C 10 km+ 1,700 ft 170° 170° 14 kt METAR EFKE 291820Z 17014KT 130V190 9999 BKN017 02/M00 Q1008
19:50
M
1 °C 10 km+ 2,000 ft 160° 160° 12 kt METAR EFKE 291750Z 16012KT 130V190 9999 SCT010 OVC020 01/M00 Q1008
19:20
M
1 °C 10 km+ 1,000 ft 160° 160° 11 kt METAR EFKE 291720Z 16011KT 9999 BKN010 01/00 Q1008
18:50
I
1 °C 10 km+ 700 ft 160° 160° 11 kt METAR EFKE 291650Z AUTO 16011KT 9999 BKN007 01/M00 Q1008
18:20
I
1 °C 10 km+ 600 ft 160° 160° 12 kt METAR EFKE 291620Z AUTO 16012KT 120V190 9999 OVC006 01/00 Q1008
17:50
I
1 °C 10 km+ 600 ft 160° 160° 14 kt METAR EFKE 291550Z AUTO 16014KT 120V180 9999 -SHSN OVC006 01/M00 Q1008
17:20
I
1 °C 10 km+ 600 ft 160° 160° 11 kt METAR EFKE 291520Z AUTO 16011KT 9999 -SHSN BKN006 OVC024 01/M00 Q1009
16:50
I
1 °C 10 km+ 500 ft 160° 160° 12 - 22 kt METAR EFKE 291450Z AUTO 16012G22KT 9999 -SHRA OVC005 01/00 Q1009
16:20
I
1 °C 10 km+ 600 ft 170° 170° 12 kt METAR EFKE 291420Z AUTO 17012KT 9999 -SN OVC006 01/M00 Q1009
15:50
I
1 °C 10 km+ 700 ft 170° 170° 12 kt METAR EFKE 291350Z AUTO 17012KT 9999 -SN OVC007 01/M00 Q1010
15:20
M
1 °C 5 km 1,200 ft 170° 170° 12 kt METAR EFKE 291320Z AUTO 17012KT 5000 -DZ OVC012 01/M00 Q1010
14:50
M
1 °C 10 km+ 1,300 ft 160° 160° 9 kt METAR EFKE 291250Z AUTO 16009KT 120V180 9999 OVC013 01/M01 Q1010
14:20
M
1 °C 10 km+ 1,100 ft 160° 160° 10 kt METAR EFKE 291220Z AUTO 16010KT 9999 OVC011 01/M01 Q1010
13:50
I
1 °C 10 km+ 900 ft 150° 150° 10 kt METAR EFKE 291150Z AUTO 15010KT 9999 OVC009 01/M01 Q1010
13:20
I
1 °C 10 km+ 900 ft 170° 170° 11 kt METAR EFKE 291120Z AUTO 17011KT 9999 OVC009 01/M01 Q1011
12:50
I
1 °C 10 km+ 800 ft 170° 170° 13 kt METAR EFKE 291050Z AUTO 17013KT 9999 OVC008 01/M01 Q1010
12:20
I
1 °C 10 km+ 700 ft 180° 180° 14 kt METAR EFKE 291020Z AUTO 18014KT 9999 OVC007 01/M01 Q1011
11:50
I
1 °C 10 km+ 600 ft 180° 180° 15 kt METAR EFKE 290950Z AUTO 18015KT 9999 OVC006 01/M01 Q1010
11:20
I
1 °C 10 km+ 600 ft 180° 180° 13 kt METAR EFKE 290920Z AUTO 18013KT 9999 OVC006 01/M01 Q1010
10:50
I
1 °C 10 km+ 600 ft 190° 190° 15 kt METAR EFKE 290850Z AUTO 19015KT 9999 OVC006 01/M01 Q1010
10:20
I
1 °C 10 km+ 500 ft 200° 200° 16 kt METAR EFKE 290820Z AUTO 20016KT 9999 OVC005 01/M01 Q1010
09:50
I
0 °C 10 km+ 500 ft 190° 190° 16 kt METAR EFKE 290750Z AUTO 19016KT 9999 OVC005 00/M00 Q1010
09:20
L
0 °C 10 km+ 400 ft 190° 190° 17 kt METAR EFKE 290720Z AUTO 19017KT 9999 OVC004 00/M01 Q1009
08:50
I
0 °C 10 km+ 500 ft 200° 200° 15 kt METAR EFKE 290650Z AUTO 20015KT 9999 OVC005 00/M01 Q1009
08:20
L
0 °C 10 km+ 400 ft 200° 200° 16 kt METAR EFKE 290620Z AUTO 20016KT 9999 -SHRA OVC004 00/M01 Q1009
07:50
L
0 °C 10 km+ 400 ft 200° 200° 15 kt METAR EFKE 290550Z AUTO 20015KT 9999 -SHRA OVC004 00/M01 Q1009